sensor_id;sensor_type;location;lat;lon;timestamp;P1;durP1;ratioP1;P2;durP2;ratioP2
75696;SDS011;64312;44.738;20.612;2023-01-15T00:00:56;33.60;;;15.60;;
75696;SDS011;64312;44.738;20.612;2023-01-15T00:03:22;33.15;;;15.55;;
75696;SDS011;64312;44.738;20.612;2023-01-15T00:05:48;34.03;;;15.25;;
75696;SDS011;64312;44.738;20.612;2023-01-15T00:08:13;33.47;;;17.63;;
75696;SDS011;64312;44.738;20.612;2023-01-15T00:10:39;35.65;;;15.88;;
75696;SDS011;64312;44.738;20.612;2023-01-15T00:13:04;36.78;;;16.05;;
75696;SDS011;64312;44.738;20.612;2023-01-15T00:15:30;33.22;;;14.77;;
75696;SDS011;64312;44.738;20.612;2023-01-15T00:17:56;35.67;;;15.80;;
75696;SDS011;64312;44.738;20.612;2023-01-15T00:20:21;30.73;;;16.73;;
75696;SDS011;64312;44.738;20.612;2023-01-15T00:22:47;34.85;;;15.90;;
75696;SDS011;64312;44.738;20.612;2023-01-15T00:25:12;36.00;;;15.93;;
75696;SDS011;64312;44.738;20.612;2023-01-15T00:27:57;39.03;;;16.10;;
75696;SDS011;64312;44.738;20.612;2023-01-15T00:30:22;34.33;;;17.10;;
75696;SDS011;64312;44.738;20.612;2023-01-15T00:32:49;37.22;;;16.27;;
75696;SDS011;64312;44.738;20.612;2023-01-15T00:35:16;42.17;;;16.98;;
75696;SDS011;64312;44.738;20.612;2023-01-15T00:37:46;37.08;;;15.82;;
75696;SDS011;64312;44.738;20.612;2023-01-15T00:40:12;30.42;;;15.25;;
75696;SDS011;64312;44.738;20.612;2023-01-15T00:42:39;34.05;;;17.40;;
75696;SDS011;64312;44.738;20.612;2023-01-15T00:45:05;30.58;;;13.85;;
75696;SDS011;64312;44.738;20.612;2023-01-15T00:47:38;26.92;;;13.73;;
75696;SDS011;64312;44.738;20.612;2023-01-15T00:50:06;32.03;;;13.00;;
75696;SDS011;64312;44.738;20.612;2023-01-15T00:52:35;31.25;;;14.80;;
75696;SDS011;64312;44.738;20.612;2023-01-15T00:55:00;29.08;;;12.50;;
75696;SDS011;64312;44.738;20.612;2023-01-15T00:57:28;28.80;;;13.32;;
75696;SDS011;64312;44.738;20.612;2023-01-15T00:59:54;26.70;;;12.25;;
75696;SDS011;64312;44.738;20.612;2023-01-15T01:02:20;28.00;;;13.80;;
75696;SDS011;64312;44.738;20.612;2023-01-15T01:04:45;30.55;;;12.68;;
75696;SDS011;64312;44.738;20.612;2023-01-15T01:07:11;24.83;;;12.23;;
75696;SDS011;64312;44.738;20.612;2023-01-15T01:09:37;27.73;;;13.45;;
75696;SDS011;64312;44.738;20.612;2023-01-15T01:12:03;26.30;;;11.95;;
75696;SDS011;64312;44.738;20.612;2023-01-15T01:14:29;21.17;;;10.65;;
75696;SDS011;64312;44.738;20.612;2023-01-15T01:16:55;26.35;;;12.00;;
75696;SDS011;64312;44.738;20.612;2023-01-15T01:19:21;25.38;;;11.27;;
75696;SDS011;64312;44.738;20.612;2023-01-15T01:21:48;27.55;;;13.30;;
75696;SDS011;64312;44.738;20.612;2023-01-15T01:24:19;27.35;;;13.75;;
75696;SDS011;64312;44.738;20.612;2023-01-15T01:26:47;25.42;;;12.88;;
75696;SDS011;64312;44.738;20.612;2023-01-15T01:29:17;26.13;;;13.40;;
75696;SDS011;64312;44.738;20.612;2023-01-15T01:31:45;28.98;;;13.25;;
75696;SDS011;64312;44.738;20.612;2023-01-15T01:34:11;28.10;;;12.55;;
75696;SDS011;64312;44.738;20.612;2023-01-15T01:36:39;30.67;;;14.55;;
75696;SDS011;64312;44.738;20.612;2023-01-15T01:39:06;26.17;;;13.43;;
75696;SDS011;64312;44.738;20.612;2023-01-15T01:41:36;27.33;;;11.57;;
75696;SDS011;64312;44.738;20.612;2023-01-15T01:44:03;24.10;;;11.55;;
75696;SDS011;64312;44.738;20.612;2023-01-15T01:46:29;22.05;;;11.18;;
75696;SDS011;64312;44.738;20.612;2023-01-15T01:48:59;23.40;;;12.27;;
75696;SDS011;64312;44.738;20.612;2023-01-15T01:51:48;23.13;;;11.25;;
75696;SDS011;64312;44.738;20.612;2023-01-15T01:54:18;25.92;;;11.02;;
75696;SDS011;64312;44.738;20.612;2023-01-15T01:56:48;23.92;;;12.20;;
75696;SDS011;64312;44.738;20.612;2023-01-15T01:59:14;24.13;;;11.93;;
75696;SDS011;64312;44.738;20.612;2023-01-15T02:01:41;21.88;;;10.15;;
75696;SDS011;64312;44.738;20.612;2023-01-15T02:04:08;22.27;;;10.35;;
75696;SDS011;64312;44.738;20.612;2023-01-15T02:06:37;24.08;;;11.15;;
75696;SDS011;64312;44.738;20.612;2023-01-15T02:09:06;24.08;;;10.43;;
75696;SDS011;64312;44.738;20.612;2023-01-15T02:11:32;29.08;;;12.77;;
75696;SDS011;64312;44.738;20.612;2023-01-15T02:14:01;26.00;;;12.10;;
75696;SDS011;64312;44.738;20.612;2023-01-15T02:16:42;23.42;;;10.52;;
75696;SDS011;64312;44.738;20.612;2023-01-15T02:19:19;20.50;;;10.38;;
75696;SDS011;64312;44.738;20.612;2023-01-15T02:27:24;20.67;;;10.23;;
75696;SDS011;64312;44.738;20.612;2023-01-15T02:32:53;20.02;;;10.10;;
75696;SDS011;64312;44.738;20.612;2023-01-15T02:36:10;22.30;;;10.82;;
75696;SDS011;64312;44.738;20.612;2023-01-15T02:38:34;19.95;;;11.00;;
75696;SDS011;64312;44.738;20.612;2023-01-15T02:43:34;16.92;;;9.43;;
75696;SDS011;64312;44.738;20.612;2023-01-15T02:46:04;24.33;;;10.60;;
75696;SDS011;64312;44.738;20.612;2023-01-15T02:48:32;22.65;;;9.45;;
75696;SDS011;64312;44.738;20.612;2023-01-15T02:51:09;23.10;;;11.27;;
75696;SDS011;64312;44.738;20.612;2023-01-15T02:53:39;23.65;;;10.80;;
75696;SDS011;64312;44.738;20.612;2023-01-15T02:56:12;20.70;;;10.10;;
75696;SDS011;64312;44.738;20.612;2023-01-15T02:58:48;21.42;;;10.10;;
75696;SDS011;64312;44.738;20.612;2023-01-15T03:01:23;20.52;;;10.40;;
75696;SDS011;64312;44.738;20.612;2023-01-15T03:09:00;19.67;;;10.73;;
75696;SDS011;64312;44.738;20.612;2023-01-15T03:11:29;20.30;;;9.77;;
75696;SDS011;64312;44.738;20.612;2023-01-15T03:14:04;21.15;;;9.40;;
75696;SDS011;64312;44.738;20.612;2023-01-15T03:16:55;20.33;;;10.88;;
75696;SDS011;64312;44.738;20.612;2023-01-15T03:19:28;17.95;;;11.32;;
75696;SDS011;64312;44.738;20.612;2023-01-15T03:24:36;24.23;;;10.82;;
75696;SDS011;64312;44.738;20.612;2023-01-15T03:27:07;21.60;;;10.73;;
75696;SDS011;64312;44.738;20.612;2023-01-15T03:29:36;22.67;;;11.10;;
75696;SDS011;64312;44.738;20.612;2023-01-15T03:32:06;17.38;;;10.00;;
75696;SDS011;64312;44.738;20.612;2023-01-15T03:37:28;22.05;;;11.82;;
75696;SDS011;64312;44.738;20.612;2023-01-15T03:39:56;25.08;;;11.82;;
75696;SDS011;64312;44.738;20.612;2023-01-15T03:45:40;19.35;;;9.90;;
75696;SDS011;64312;44.738;20.612;2023-01-15T03:51:21;19.05;;;9.65;;
75696;SDS011;64312;44.738;20.612;2023-01-15T03:53:53;19.17;;;10.20;;
75696;SDS011;64312;44.738;20.612;2023-01-15T03:56:43;16.65;;;8.82;;
75696;SDS011;64312;44.738;20.612;2023-01-15T03:59:42;21.48;;;10.23;;
75696;SDS011;64312;44.738;20.612;2023-01-15T04:02:15;17.17;;;9.23;;
75696;SDS011;64312;44.738;20.612;2023-01-15T04:04:43;20.38;;;10.57;;
75696;SDS011;64312;44.738;20.612;2023-01-15T04:07:11;18.02;;;8.30;;
75696;SDS011;64312;44.738;20.612;2023-01-15T04:09:38;18.35;;;10.25;;
75696;SDS011;64312;44.738;20.612;2023-01-15T04:12:07;21.65;;;10.73;;
75696;SDS011;64312;44.738;20.612;2023-01-15T04:14:38;19.27;;;9.85;;
75696;SDS011;64312;44.738;20.612;2023-01-15T04:17:07;17.98;;;9.77;;
75696;SDS011;64312;44.738;20.612;2023-01-15T04:19:32;19.35;;;10.45;;
75696;SDS011;64312;44.738;20.612;2023-01-15T04:22:01;21.77;;;9.30;;
75696;SDS011;64312;44.738;20.612;2023-01-15T04:24:27;20.13;;;10.65;;
75696;SDS011;64312;44.738;20.612;2023-01-15T04:26:53;20.15;;;10.75;;
75696;SDS011;64312;44.738;20.612;2023-01-15T04:29:18;19.88;;;9.32;;
75696;SDS011;64312;44.738;20.612;2023-01-15T04:31:44;22.67;;;10.90;;
75696;SDS011;64312;44.738;20.612;2023-01-15T04:34:10;21.50;;;10.70;;
75696;SDS011;64312;44.738;20.612;2023-01-15T04:36:36;20.73;;;8.95;;
75696;SDS011;64312;44.738;20.612;2023-01-15T04:39:02;19.60;;;9.43;;
75696;SDS011;64312;44.738;20.612;2023-01-15T04:41:29;19.95;;;9.50;;
75696;SDS011;64312;44.738;20.612;2023-01-15T04:44:14;18.70;;;9.30;;
75696;SDS011;64312;44.738;20.612;2023-01-15T04:46:40;20.70;;;10.25;;
75696;SDS011;64312;44.738;20.612;2023-01-15T04:49:11;22.70;;;10.35;;
75696;SDS011;64312;44.738;20.612;2023-01-15T04:51:39;21.65;;;9.60;;
75696;SDS011;64312;44.738;20.612;2023-01-15T04:54:05;19.40;;;10.20;;
75696;SDS011;64312;44.738;20.612;2023-01-15T04:56:36;19.23;;;9.98;;
75696;SDS011;64312;44.738;20.612;2023-01-15T04:59:03;18.05;;;9.63;;
75696;SDS011;64312;44.738;20.612;2023-01-15T05:01:28;20.52;;;9.82;;
75696;SDS011;64312;44.738;20.612;2023-01-15T05:03:55;25.02;;;10.52;;
75696;SDS011;64312;44.738;20.612;2023-01-15T05:06:22;22.67;;;8.88;;
75696;SDS011;64312;44.738;20.612;2023-01-15T05:08:49;23.40;;;10.07;;
75696;SDS011;64312;44.738;20.612;2023-01-15T05:11:14;21.70;;;8.82;;
75696;SDS011;64312;44.738;20.612;2023-01-15T05:13:40;19.00;;;9.65;;
75696;SDS011;64312;44.738;20.612;2023-01-15T05:18:36;17.60;;;8.95;;
75696;SDS011;64312;44.738;20.612;2023-01-15T05:21:02;15.65;;;8.90;;
75696;SDS011;64312;44.738;20.612;2023-01-15T05:23:29;22.65;;;9.43;;
75696;SDS011;64312;44.738;20.612;2023-01-15T05:25:54;20.00;;;9.00;;
75696;SDS011;64312;44.738;20.612;2023-01-15T05:28:20;24.20;;;11.40;;
75696;SDS011;64312;44.738;20.612;2023-01-15T05:30:45;21.58;;;10.90;;
75696;SDS011;64312;44.738;20.612;2023-01-15T05:33:11;24.55;;;11.82;;
75696;SDS011;64312;44.738;20.612;2023-01-15T05:35:37;24.33;;;13.00;;
75696;SDS011;64312;44.738;20.612;2023-01-15T05:38:02;27.88;;;12.30;;
75696;SDS011;64312;44.738;20.612;2023-01-15T05:40:30;23.50;;;12.30;;
75696;SDS011;64312;44.738;20.612;2023-01-15T05:42:56;21.83;;;11.32;;
75696;SDS011;64312;44.738;20.612;2023-01-15T05:45:22;27.20;;;12.27;;
75696;SDS011;64312;44.738;20.612;2023-01-15T05:47:47;26.45;;;12.38;;
75696;SDS011;64312;44.738;20.612;2023-01-15T05:50:13;22.30;;;10.40;;
75696;SDS011;64312;44.738;20.612;2023-01-15T05:52:39;23.77;;;12.00;;
75696;SDS011;64312;44.738;20.612;2023-01-15T05:55:04;22.25;;;10.55;;
75696;SDS011;64312;44.738;20.612;2023-01-15T05:57:30;22.25;;;10.07;;
75696;SDS011;64312;44.738;20.612;2023-01-15T05:59:57;24.05;;;11.18;;
75696;SDS011;64312;44.738;20.612;2023-01-15T06:02:23;22.98;;;10.75;;
75696;SDS011;64312;44.738;20.612;2023-01-15T06:04:49;21.38;;;11.23;;
75696;SDS011;64312;44.738;20.612;2023-01-15T06:07:15;20.90;;;10.52;;
75696;SDS011;64312;44.738;20.612;2023-01-15T06:09:43;21.85;;;11.13;;
75696;SDS011;64312;44.738;20.612;2023-01-15T06:12:09;24.38;;;10.75;;
75696;SDS011;64312;44.738;20.612;2023-01-15T06:14:35;23.50;;;9.93;;
75696;SDS011;64312;44.738;20.612;2023-01-15T06:17:01;18.05;;;9.40;;
75696;SDS011;64312;44.738;20.612;2023-01-15T06:19:26;20.10;;;9.07;;
75696;SDS011;64312;44.738;20.612;2023-01-15T06:21:52;19.98;;;9.07;;
75696;SDS011;64312;44.738;20.612;2023-01-15T06:24:18;21.42;;;10.32;;
75696;SDS011;64312;44.738;20.612;2023-01-15T06:26:44;19.35;;;9.57;;
75696;SDS011;64312;44.738;20.612;2023-01-15T06:29:10;20.25;;;9.07;;
75696;SDS011;64312;44.738;20.612;2023-01-15T06:31:36;20.65;;;9.27;;
75696;SDS011;64312;44.738;20.612;2023-01-15T06:34:01;22.10;;;10.05;;
75696;SDS011;64312;44.738;20.612;2023-01-15T06:36:27;20.80;;;9.32;;
75696;SDS011;64312;44.738;20.612;2023-01-15T06:38:53;21.27;;;9.63;;
75696;SDS011;64312;44.738;20.612;2023-01-15T06:41:20;22.77;;;10.75;;
75696;SDS011;64312;44.738;20.612;2023-01-15T06:44:10;20.27;;;10.48;;
75696;SDS011;64312;44.738;20.612;2023-01-15T06:46:57;21.63;;;10.50;;
75696;SDS011;64312;44.738;20.612;2023-01-15T06:49:41;26.05;;;11.93;;
75696;SDS011;64312;44.738;20.612;2023-01-15T06:52:07;23.70;;;10.65;;
75696;SDS011;64312;44.738;20.612;2023-01-15T06:54:33;18.63;;;10.07;;
75696;SDS011;64312;44.738;20.612;2023-01-15T06:56:59;20.27;;;8.77;;
75696;SDS011;64312;44.738;20.612;2023-01-15T06:59:25;24.88;;;9.93;;
75696;SDS011;64312;44.738;20.612;2023-01-15T07:01:50;19.58;;;9.73;;
75696;SDS011;64312;44.738;20.612;2023-01-15T07:04:16;18.88;;;9.52;;
75696;SDS011;64312;44.738;20.612;2023-01-15T07:06:42;17.08;;;9.18;;
75696;SDS011;64312;44.738;20.612;2023-01-15T07:09:07;20.98;;;10.30;;
75696;SDS011;64312;44.738;20.612;2023-01-15T07:11:33;22.45;;;8.88;;
75696;SDS011;64312;44.738;20.612;2023-01-15T07:13:59;22.05;;;10.63;;
75696;SDS011;64312;44.738;20.612;2023-01-15T07:16:31;26.65;;;12.95;;
75696;SDS011;64312;44.738;20.612;2023-01-15T07:18:57;32.78;;;14.65;;
75696;SDS011;64312;44.738;20.612;2023-01-15T07:21:23;27.70;;;14.13;;
75696;SDS011;64312;44.738;20.612;2023-01-15T07:23:49;35.15;;;14.57;;
75696;SDS011;64312;44.738;20.612;2023-01-15T07:26:15;40.63;;;15.85;;
75696;SDS011;64312;44.738;20.612;2023-01-15T07:28:40;32.42;;;15.88;;
75696;SDS011;64312;44.738;20.612;2023-01-15T07:31:06;39.10;;;16.42;;
75696;SDS011;64312;44.738;20.612;2023-01-15T07:33:31;33.67;;;16.35;;
75696;SDS011;64312;44.738;20.612;2023-01-15T07:36:00;36.55;;;16.05;;
75696;SDS011;64312;44.738;20.612;2023-01-15T07:38:27;36.33;;;16.33;;
75696;SDS011;64312;44.738;20.612;2023-01-15T07:40:56;35.85;;;15.73;;
75696;SDS011;64312;44.738;20.612;2023-01-15T07:43:41;46.28;;;19.65;;
75696;SDS011;64312;44.738;20.612;2023-01-15T07:46:26;43.80;;;19.00;;
75696;SDS011;64312;44.738;20.612;2023-01-15T07:49:11;38.92;;;18.13;;
75696;SDS011;64312;44.738;20.612;2023-01-15T07:51:56;40.58;;;18.23;;
75696;SDS011;64312;44.738;20.612;2023-01-15T07:54:22;32.03;;;15.77;;
75696;SDS011;64312;44.738;20.612;2023-01-15T07:56:48;33.38;;;14.70;;
75696;SDS011;64312;44.738;20.612;2023-01-15T07:59:15;36.22;;;16.30;;
75696;SDS011;64312;44.738;20.612;2023-01-15T08:01:41;35.33;;;15.73;;
75696;SDS011;64312;44.738;20.612;2023-01-15T08:04:06;36.55;;;16.35;;
75696;SDS011;64312;44.738;20.612;2023-01-15T08:06:32;38.85;;;16.25;;
75696;SDS011;64312;44.738;20.612;2023-01-15T08:08:57;36.58;;;15.02;;
75696;SDS011;64312;44.738;20.612;2023-01-15T08:11:23;38.35;;;17.38;;
75696;SDS011;64312;44.738;20.612;2023-01-15T08:14:08;36.53;;;16.92;;
75696;SDS011;64312;44.738;20.612;2023-01-15T08:16:53;31.17;;;15.52;;
75696;SDS011;64312;44.738;20.612;2023-01-15T08:19:19;31.77;;;15.68;;
75696;SDS011;64312;44.738;20.612;2023-01-15T08:21:45;32.00;;;16.15;;
75696;SDS011;64312;44.738;20.612;2023-01-15T08:24:10;31.13;;;14.93;;
75696;SDS011;64312;44.738;20.612;2023-01-15T08:26:36;33.75;;;14.73;;
75696;SDS011;64312;44.738;20.612;2023-01-15T08:29:02;30.88;;;14.50;;
75696;SDS011;64312;44.738;20.612;2023-01-15T08:31:28;38.15;;;17.85;;
75696;SDS011;64312;44.738;20.612;2023-01-15T08:33:53;31.85;;;14.45;;
75696;SDS011;64312;44.738;20.612;2023-01-15T08:36:19;31.30;;;15.18;;
75696;SDS011;64312;44.738;20.612;2023-01-15T08:38:47;38.50;;;15.55;;
75696;SDS011;64312;44.738;20.612;2023-01-15T08:41:14;34.42;;;16.23;;
75696;SDS011;64312;44.738;20.612;2023-01-15T08:43:39;27.48;;;14.57;;
75696;SDS011;64312;44.738;20.612;2023-01-15T08:46:05;28.80;;;14.40;;
75696;SDS011;64312;44.738;20.612;2023-01-15T08:48:31;30.42;;;14.57;;
75696;SDS011;64312;44.738;20.612;2023-01-15T08:50:58;24.67;;;12.88;;
75696;SDS011;64312;44.738;20.612;2023-01-15T08:53:28;26.10;;;12.13;;
75696;SDS011;64312;44.738;20.612;2023-01-15T08:55:54;20.45;;;10.95;;
75696;SDS011;64312;44.738;20.612;2023-01-15T08:58:20;24.45;;;10.00;;
75696;SDS011;64312;44.738;20.612;2023-01-15T09:00:45;21.40;;;10.32;;
75696;SDS011;64312;44.738;20.612;2023-01-15T09:03:13;23.13;;;11.48;;
75696;SDS011;64312;44.738;20.612;2023-01-15T09:05:39;19.05;;;10.02;;
75696;SDS011;64312;44.738;20.612;2023-01-15T09:08:05;17.85;;;9.35;;
75696;SDS011;64312;44.738;20.612;2023-01-15T09:10:32;17.13;;;9.10;;
75696;SDS011;64312;44.738;20.612;2023-01-15T09:12:59;21.33;;;10.95;;
75696;SDS011;64312;44.738;20.612;2023-01-15T09:15:29;19.52;;;10.77;;
75696;SDS011;64312;44.738;20.612;2023-01-15T09:20:22;20.70;;;10.35;;
75696;SDS011;64312;44.738;20.612;2023-01-15T09:22:48;21.70;;;9.43;;
75696;SDS011;64312;44.738;20.612;2023-01-15T09:25:14;22.77;;;12.00;;
75696;SDS011;64312;44.738;20.612;2023-01-15T09:27:41;22.65;;;11.48;;
75696;SDS011;64312;44.738;20.612;2023-01-15T09:30:08;22.15;;;11.05;;
75696;SDS011;64312;44.738;20.612;2023-01-15T09:32:39;24.25;;;11.18;;
75696;SDS011;64312;44.738;20.612;2023-01-15T09:35:04;22.50;;;10.70;;
75696;SDS011;64312;44.738;20.612;2023-01-15T09:37:30;24.42;;;12.18;;
75696;SDS011;64312;44.738;20.612;2023-01-15T09:39:56;19.20;;;10.45;;
75696;SDS011;64312;44.738;20.612;2023-01-15T09:42:26;20.65;;;10.80;;
75696;SDS011;64312;44.738;20.612;2023-01-15T09:47:40;29.38;;;15.00;;
75696;SDS011;64312;44.738;20.612;2023-01-15T09:50:20;24.60;;;12.65;;
75696;SDS011;64312;44.738;20.612;2023-01-15T09:55:45;22.33;;;11.43;;
75696;SDS011;64312;44.738;20.612;2023-01-15T09:58:13;23.75;;;12.20;;
75696;SDS011;64312;44.738;20.612;2023-01-15T10:00:46;23.30;;;10.88;;
75696;SDS011;64312;44.738;20.612;2023-01-15T10:03:20;18.45;;;8.85;;
75696;SDS011;64312;44.738;20.612;2023-01-15T10:06:04;18.27;;;9.70;;
75696;SDS011;64312;44.738;20.612;2023-01-15T10:08:37;21.67;;;10.73;;
75696;SDS011;64312;44.738;20.612;2023-01-15T10:11:18;18.65;;;10.38;;
75696;SDS011;64312;44.738;20.612;2023-01-15T10:14:12;17.35;;;10.00;;
75696;SDS011;64312;44.738;20.612;2023-01-15T10:16:46;18.98;;;10.70;;
75696;SDS011;64312;44.738;20.612;2023-01-15T10:19:11;21.13;;;10.50;;
75696;SDS011;64312;44.738;20.612;2023-01-15T10:21:55;17.25;;;9.35;;
75696;SDS011;64312;44.738;20.612;2023-01-15T10:24:36;15.05;;;9.25;;
75696;SDS011;64312;44.738;20.612;2023-01-15T10:33:12;16.90;;;8.55;;
75696;SDS011;64312;44.738;20.612;2023-01-15T10:36:01;21.80;;;11.05;;
75696;SDS011;64312;44.738;20.612;2023-01-15T10:38:42;19.55;;;10.10;;
75696;SDS011;64312;44.738;20.612;2023-01-15T10:43:55;21.60;;;11.52;;
75696;SDS011;64312;44.738;20.612;2023-01-15T10:46:35;21.50;;;11.35;;
75696;SDS011;64312;44.738;20.612;2023-01-15T10:51:54;17.95;;;10.85;;
75696;SDS011;64312;44.738;20.612;2023-01-15T10:54:27;19.85;;;9.93;;
75696;SDS011;64312;44.738;20.612;2023-01-15T10:57:00;16.92;;;9.82;;
75696;SDS011;64312;44.738;20.612;2023-01-15T10:59:55;16.95;;;9.25;;
75696;SDS011;64312;44.738;20.612;2023-01-15T11:05:27;20.73;;;10.85;;
75696;SDS011;64312;44.738;20.612;2023-01-15T11:07:53;15.30;;;9.95;;
75696;SDS011;64312;44.738;20.612;2023-01-15T11:10:20;18.15;;;10.02;;
75696;SDS011;64312;44.738;20.612;2023-01-15T11:12:54;16.17;;;9.52;;
75696;SDS011;64312;44.738;20.612;2023-01-15T11:15:43;15.93;;;8.85;;
75696;SDS011;64312;44.738;20.612;2023-01-15T11:18:31;14.20;;;8.60;;
75696;SDS011;64312;44.738;20.612;2023-01-15T11:21:21;16.92;;;9.15;;
75696;SDS011;64312;44.738;20.612;2023-01-15T11:23:48;13.63;;;9.25;;
75696;SDS011;64312;44.738;20.612;2023-01-15T11:26:16;17.60;;;8.85;;
75696;SDS011;64312;44.738;20.612;2023-01-15T11:28:46;25.48;;;14.32;;
75696;SDS011;64312;44.738;20.612;2023-01-15T11:31:13;23.08;;;12.70;;
75696;SDS011;64312;44.738;20.612;2023-01-15T11:33:39;17.25;;;10.48;;
75696;SDS011;64312;44.738;20.612;2023-01-15T11:36:19;21.52;;;12.55;;
75696;SDS011;64312;44.738;20.612;2023-01-15T11:38:50;20.58;;;12.05;;
75696;SDS011;64312;44.738;20.612;2023-01-15T11:44:11;16.15;;;10.75;;
75696;SDS011;64312;44.738;20.612;2023-01-15T11:46:56;12.75;;;8.88;;
75696;SDS011;64312;44.738;20.612;2023-01-15T11:49:50;10.93;;;7.70;;
75696;SDS011;64312;44.738;20.612;2023-01-15T11:52:36;13.00;;;7.70;;
75696;SDS011;64312;44.738;20.612;2023-01-15T11:55:10;13.23;;;8.15;;
75696;SDS011;64312;44.738;20.612;2023-01-15T11:57:39;11.68;;;7.05;;
75696;SDS011;64312;44.738;20.612;2023-01-15T12:00:05;10.88;;;7.00;;
75696;SDS011;64312;44.738;20.612;2023-01-15T12:02:38;11.02;;;7.63;;
75696;SDS011;64312;44.738;20.612;2023-01-15T12:05:15;11.85;;;7.75;;
75696;SDS011;64312;44.738;20.612;2023-01-15T12:07:47;13.35;;;7.78;;
75696;SDS011;64312;44.738;20.612;2023-01-15T12:13:30;11.10;;;6.63;;
75696;SDS011;64312;44.738;20.612;2023-01-15T12:21:38;12.68;;;6.47;;
75696;SDS011;64312;44.738;20.612;2023-01-15T12:27:26;10.02;;;6.90;;
75696;SDS011;64312;44.738;20.612;2023-01-15T12:32:39;11.23;;;6.22;;
75696;SDS011;64312;44.738;20.612;2023-01-15T12:35:28;12.13;;;6.63;;
75696;SDS011;64312;44.738;20.612;2023-01-15T12:38:04;13.18;;;7.03;;
75696;SDS011;64312;44.738;20.612;2023-01-15T12:40:40;9.82;;;6.90;;
75696;SDS011;64312;44.738;20.612;2023-01-15T12:43:16;11.82;;;7.43;;
75696;SDS011;64312;44.738;20.612;2023-01-15T12:46:09;10.98;;;6.35;;
75696;SDS011;64312;44.738;20.612;2023-01-15T12:48:48;9.45;;;5.95;;
75696;SDS011;64312;44.738;20.612;2023-01-15T12:51:20;11.98;;;7.38;;
75696;SDS011;64312;44.738;20.612;2023-01-15T12:54:00;12.10;;;7.28;;
75696;SDS011;64312;44.738;20.612;2023-01-15T12:56:34;10.32;;;6.72;;
75696;SDS011;64312;44.738;20.612;2023-01-15T12:59:13;13.00;;;7.30;;
75696;SDS011;64312;44.738;20.612;2023-01-15T13:01:55;12.18;;;6.60;;
75696;SDS011;64312;44.738;20.612;2023-01-15T13:07:10;12.35;;;7.30;;
75696;SDS011;64312;44.738;20.612;2023-01-15T13:09:45;12.25;;;6.88;;
75696;SDS011;64312;44.738;20.612;2023-01-15T13:12:17;12.27;;;6.45;;
75696;SDS011;64312;44.738;20.612;2023-01-15T13:14:42;11.45;;;6.32;;
75696;SDS011;64312;44.738;20.612;2023-01-15T13:22:29;14.52;;;7.13;;
75696;SDS011;64312;44.738;20.612;2023-01-15T13:28:10;13.10;;;7.10;;
75696;SDS011;64312;44.738;20.612;2023-01-15T13:33:19;12.27;;;7.20;;
75696;SDS011;64312;44.738;20.612;2023-01-15T13:35:52;15.13;;;7.70;;
75696;SDS011;64312;44.738;20.612;2023-01-15T13:38:21;12.85;;;7.63;;
75696;SDS011;64312;44.738;20.612;2023-01-15T13:40:51;14.05;;;8.43;;
75696;SDS011;64312;44.738;20.612;2023-01-15T13:43:27;15.98;;;9.77;;
75696;SDS011;64312;44.738;20.612;2023-01-15T13:45:58;18.20;;;9.82;;
75696;SDS011;64312;44.738;20.612;2023-01-15T13:50:58;12.35;;;7.00;;
75696;SDS011;64312;44.738;20.612;2023-01-15T13:53:30;12.18;;;7.85;;
75696;SDS011;64312;44.738;20.612;2023-01-15T13:55:59;11.00;;;7.18;;
75696;SDS011;64312;44.738;20.612;2023-01-15T13:58:31;13.07;;;8.38;;
75696;SDS011;64312;44.738;20.612;2023-01-15T14:01:32;12.15;;;6.28;;
75696;SDS011;64312;44.738;20.612;2023-01-15T14:03:54;16.98;;;9.68;;
75696;SDS011;64312;44.738;20.612;2023-01-15T14:23:14;13.07;;;7.80;;
75696;SDS011;64312;44.738;20.612;2023-01-15T14:31:23;10.23;;;6.10;;
75696;SDS011;64312;44.738;20.612;2023-01-15T14:34:17;11.85;;;7.32;;
75696;SDS011;64312;44.738;20.612;2023-01-15T14:36:49;13.57;;;6.70;;
75696;SDS011;64312;44.738;20.612;2023-01-15T14:39:23;10.38;;;6.78;;
75696;SDS011;64312;44.738;20.612;2023-01-15T14:41:57;12.55;;;6.57;;
75696;SDS011;64312;44.738;20.612;2023-01-15T14:44:57;10.55;;;6.82;;
75696;SDS011;64312;44.738;20.612;2023-01-15T14:47:27;9.38;;;5.90;;
75696;SDS011;64312;44.738;20.612;2023-01-15T14:50:01;13.10;;;6.07;;
75696;SDS011;64312;44.738;20.612;2023-01-15T14:52:46;11.50;;;6.70;;
75696;SDS011;64312;44.738;20.612;2023-01-15T14:55:13;9.95;;;5.90;;
75696;SDS011;64312;44.738;20.612;2023-01-15T14:57:44;9.65;;;5.75;;
75696;SDS011;64312;44.738;20.612;2023-01-15T15:00:20;12.57;;;7.18;;
75696;SDS011;64312;44.738;20.612;2023-01-15T15:02:48;15.65;;;8.35;;
75696;SDS011;64312;44.738;20.612;2023-01-15T15:05:15;11.85;;;6.13;;
75696;SDS011;64312;44.738;20.612;2023-01-15T15:07:44;13.00;;;8.00;;
75696;SDS011;64312;44.738;20.612;2023-01-15T15:21:39;14.60;;;7.72;;
75696;SDS011;64312;44.738;20.612;2023-01-15T15:27:07;15.15;;;8.73;;
75696;SDS011;64312;44.738;20.612;2023-01-15T15:29:44;17.50;;;9.35;;
75696;SDS011;64312;44.738;20.612;2023-01-15T15:32:16;16.73;;;9.18;;
75696;SDS011;64312;44.738;20.612;2023-01-15T15:34:46;20.15;;;10.02;;
75696;SDS011;64312;44.738;20.612;2023-01-15T15:37:18;18.70;;;9.35;;
75696;SDS011;64312;44.738;20.612;2023-01-15T15:42:30;14.25;;;7.05;;
75696;SDS011;64312;44.738;20.612;2023-01-15T15:45:19;14.27;;;7.95;;
75696;SDS011;64312;44.738;20.612;2023-01-15T15:48:11;16.85;;;8.45;;
75696;SDS011;64312;44.738;20.612;2023-01-15T15:59:42;19.25;;;7.93;;
75696;SDS011;64312;44.738;20.612;2023-01-15T16:02:16;14.52;;;7.90;;
75696;SDS011;64312;44.738;20.612;2023-01-15T16:04:49;12.25;;;6.65;;
75696;SDS011;64312;44.738;20.612;2023-01-15T16:07:23;12.32;;;5.65;;
75696;SDS011;64312;44.738;20.612;2023-01-15T16:09:53;11.60;;;6.07;;
75696;SDS011;64312;44.738;20.612;2023-01-15T16:12:22;13.77;;;6.80;;
75696;SDS011;64312;44.738;20.612;2023-01-15T16:14:49;9.90;;;5.60;;
75696;SDS011;64312;44.738;20.612;2023-01-15T16:17:16;10.68;;;6.00;;
75696;SDS011;64312;44.738;20.612;2023-01-15T16:19:42;10.82;;;5.50;;
75696;SDS011;64312;44.738;20.612;2023-01-15T16:22:11;11.32;;;6.15;;
75696;SDS011;64312;44.738;20.612;2023-01-15T16:24:41;11.10;;;5.78;;
75696;SDS011;64312;44.738;20.612;2023-01-15T16:27:21;13.73;;;6.63;;
75696;SDS011;64312;44.738;20.612;2023-01-15T16:29:48;13.00;;;7.15;;
75696;SDS011;64312;44.738;20.612;2023-01-15T16:32:26;12.68;;;6.28;;
75696;SDS011;64312;44.738;20.612;2023-01-15T16:35:03;12.05;;;6.05;;
75696;SDS011;64312;44.738;20.612;2023-01-15T16:37:31;13.93;;;6.72;;
75696;SDS011;64312;44.738;20.612;2023-01-15T16:39:59;11.38;;;6.50;;
75696;SDS011;64312;44.738;20.612;2023-01-15T16:42:29;12.02;;;6.80;;
75696;SDS011;64312;44.738;20.612;2023-01-15T16:45:06;16.08;;;8.10;;
75696;SDS011;64312;44.738;20.612;2023-01-15T16:48:01;15.73;;;7.65;;
75696;SDS011;64312;44.738;20.612;2023-01-15T16:50:50;14.15;;;7.95;;